sensor_id;sensor_type;location;lat;lon;timestamp;temperature;humidity
15386;DHT22;7791;47.246;9.648;2024-01-11T00:01:21;1.00;99.90
15386;DHT22;7791;47.246;9.648;2024-01-11T00:04:10;0.90;99.90
15386;DHT22;7791;47.246;9.648;2024-01-11T00:07:02;0.80;99.90
15386;DHT22;7791;47.246;9.648;2024-01-11T00:09:42;0.80;99.90
15386;DHT22;7791;47.246;9.648;2024-01-11T00:12:20;0.80;99.90
15386;DHT22;7791;47.246;9.648;2024-01-11T00:14:59;0.80;99.90
15386;DHT22;7791;47.246;9.648;2024-01-11T00:17:35;0.90;99.90
15386;DHT22;7791;47.246;9.648;2024-01-11T00:20:09;0.90;99.90
15386;DHT22;7791;47.246;9.648;2024-01-11T00:22:48;0.80;99.90
15386;DHT22;7791;47.246;9.648;2024-01-11T00:28:32;0.80;99.90
15386;DHT22;7791;47.246;9.648;2024-01-11T00:31:17;0.90;99.90
15386;DHT22;7791;47.246;9.648;2024-01-11T00:34:06;0.90;99.90
15386;DHT22;7791;47.246;9.648;2024-01-11T00:37:00;0.90;99.90
15386;DHT22;7791;47.246;9.648;2024-01-11T00:39:44;0.80;99.90
15386;DHT22;7791;47.246;9.648;2024-01-11T00:42:20;0.60;99.90
15386;DHT22;7791;47.246;9.648;2024-01-11T00:45:18;0.40;99.90
15386;DHT22;7791;47.246;9.648;2024-01-11T00:48:01;0.50;99.90
15386;DHT22;7791;47.246;9.648;2024-01-11T00:50:43;0.60;99.90
15386;DHT22;7791;47.246;9.648;2024-01-11T00:53:18;0.70;99.90
15386;DHT22;7791;47.246;9.648;2024-01-11T00:55:51;0.80;99.90
15386;DHT22;7791;47.246;9.648;2024-01-11T00:58:34;0.70;99.90
15386;DHT22;7791;47.246;9.648;2024-01-11T01:04:08;0.80;99.90
15386;DHT22;7791;47.246;9.648;2024-01-11T01:06:40;0.60;99.90
15386;DHT22;7791;47.246;9.648;2024-01-11T01:09:24;0.60;99.90
15386;DHT22;7791;47.246;9.648;2024-01-11T01:12:08;0.70;99.90
15386;DHT22;7791;47.246;9.648;2024-01-11T01:15:09;0.80;99.90
15386;DHT22;7791;47.246;9.648;2024-01-11T01:17:51;0.60;99.90
15386;DHT22;7791;47.246;9.648;2024-01-11T01:20:43;0.60;99.90
15386;DHT22;7791;47.246;9.648;2024-01-11T01:23:18;0.60;99.90
15386;DHT22;7791;47.246;9.648;2024-01-11T01:25:56;0.70;99.90
15386;DHT22;7791;47.246;9.648;2024-01-11T01:28:37;0.70;99.90
15386;DHT22;7791;47.246;9.648;2024-01-11T01:31:16;0.70;99.90
15386;DHT22;7791;47.246;9.648;2024-01-11T01:33:50;0.80;99.90
15386;DHT22;7791;47.246;9.648;2024-01-11T01:39:28;0.80;99.90
15386;DHT22;7791;47.246;9.648;2024-01-11T01:44:52;0.60;99.90
15386;DHT22;7791;47.246;9.648;2024-01-11T01:47:37;0.50;99.90
15386;DHT22;7791;47.246;9.648;2024-01-11T01:50:28;0.40;99.90
15386;DHT22;7791;47.246;9.648;2024-01-11T01:55:57;0.60;99.90
15386;DHT22;7791;47.246;9.648;2024-01-11T01:58:37;0.60;99.90
15386;DHT22;7791;47.246;9.648;2024-01-11T02:01:14;0.60;99.90
15386;DHT22;7791;47.246;9.648;2024-01-11T02:03:42;0.70;99.90
15386;DHT22;7791;47.246;9.648;2024-01-11T02:06:38;0.70;99.90
15386;DHT22;7791;47.246;9.648;2024-01-11T02:09:33;0.70;99.90
15386;DHT22;7791;47.246;9.648;2024-01-11T02:15:12;0.70;99.90
15386;DHT22;7791;47.246;9.648;2024-01-11T02:20:58;0.60;99.90
15386;DHT22;7791;47.246;9.648;2024-01-11T02:23:33;0.60;99.90
15386;DHT22;7791;47.246;9.648;2024-01-11T02:26:24;0.60;99.90
15386;DHT22;7791;47.246;9.648;2024-01-11T02:29:05;0.30;99.90
15386;DHT22;7791;47.246;9.648;2024-01-11T02:31:41;-0.10;99.90
15386;DHT22;7791;47.246;9.648;2024-01-11T02:35:00;-0.40;99.90
15386;DHT22;7791;47.246;9.648;2024-01-11T02:37:32;-0.50;99.90
15386;DHT22;7791;47.246;9.648;2024-01-11T02:43:08;-0.50;99.90
15386;DHT22;7791;47.246;9.648;2024-01-11T02:45:56;-0.70;99.90
15386;DHT22;7791;47.246;9.648;2024-01-11T02:51:29;-0.40;99.90
15386;DHT22;7791;47.246;9.648;2024-01-11T02:53:57;-0.20;99.90
15386;DHT22;7791;47.246;9.648;2024-01-11T02:56:43;-0.10;99.90
15386;DHT22;7791;47.246;9.648;2024-01-11T02:59:46;0.00;99.90
15386;DHT22;7791;47.246;9.648;2024-01-11T03:02:40;0.00;99.90
15386;DHT22;7791;47.246;9.648;2024-01-11T03:05:19;0.10;99.90
15386;DHT22;7791;47.246;9.648;2024-01-11T03:07:54;0.00;99.90
15386;DHT22;7791;47.246;9.648;2024-01-11T03:10:43;0.00;99.90
15386;DHT22;7791;47.246;9.648;2024-01-11T03:13:27;0.00;99.90
15386;DHT22;7791;47.246;9.648;2024-01-11T03:16:05;0.10;99.90
15386;DHT22;7791;47.246;9.648;2024-01-11T03:18:43;0.10;99.90
15386;DHT22;7791;47.246;9.648;2024-01-11T03:24:05;0.10;99.90
15386;DHT22;7791;47.246;9.648;2024-01-11T03:26:51;0.10;99.90
15386;DHT22;7791;47.246;9.648;2024-01-11T03:32:24;0.10;99.90
15386;DHT22;7791;47.246;9.648;2024-01-11T03:38:03;0.10;99.90
15386;DHT22;7791;47.246;9.648;2024-01-11T03:40:41;0.20;99.90
15386;DHT22;7791;47.246;9.648;2024-01-11T03:43:18;0.10;99.90
15386;DHT22;7791;47.246;9.648;2024-01-11T03:46:04;0.00;99.90
15386;DHT22;7791;47.246;9.648;2024-01-11T03:48:39;0.10;99.90
15386;DHT22;7791;47.246;9.648;2024-01-11T03:51:17;0.20;99.90
15386;DHT22;7791;47.246;9.648;2024-01-11T03:53:57;0.20;99.90
15386;DHT22;7791;47.246;9.648;2024-01-11T03:56:35;0.30;99.90
15386;DHT22;7791;47.246;9.648;2024-01-11T03:59:10;0.30;99.90
15386;DHT22;7791;47.246;9.648;2024-01-11T04:02:00;0.30;99.90
15386;DHT22;7791;47.246;9.648;2024-01-11T04:04:45;0.40;99.90
15386;DHT22;7791;47.246;9.648;2024-01-11T04:07:20;0.30;99.90
15386;DHT22;7791;47.246;9.648;2024-01-11T04:10:02;0.20;99.90
15386;DHT22;7791;47.246;9.648;2024-01-11T04:12:37;0.00;99.90
15386;DHT22;7791;47.246;9.648;2024-01-11T04:15:19;-0.10;99.90
15386;DHT22;7791;47.246;9.648;2024-01-11T04:20:56;-0.10;99.90
15386;DHT22;7791;47.246;9.648;2024-01-11T04:23:39;-0.20;99.90
15386;DHT22;7791;47.246;9.648;2024-01-11T04:26:14;-0.10;99.90
15386;DHT22;7791;47.246;9.648;2024-01-11T04:28:52;0.10;99.90
15386;DHT22;7791;47.246;9.648;2024-01-11T04:31:24;0.00;99.90
15386;DHT22;7791;47.246;9.648;2024-01-11T04:33:53;0.10;99.90
15386;DHT22;7791;47.246;9.648;2024-01-11T04:39:36;0.10;99.90
15386;DHT22;7791;47.246;9.648;2024-01-11T04:45:12;0.00;99.90
15386;DHT22;7791;47.246;9.648;2024-01-11T04:47:58;-0.20;99.90
15386;DHT22;7791;47.246;9.648;2024-01-11T04:50:43;-0.20;99.90
15386;DHT22;7791;47.246;9.648;2024-01-11T04:56:23;-0.20;99.90
15386;DHT22;7791;47.246;9.648;2024-01-11T04:59:03;-0.20;99.90
15386;DHT22;7791;47.246;9.648;2024-01-11T05:01:37;-0.10;99.90
15386;DHT22;7791;47.246;9.648;2024-01-11T05:04:12;0.00;99.90
15386;DHT22;7791;47.246;9.648;2024-01-11T05:06:48;0.00;99.90
15386;DHT22;7791;47.246;9.648;2024-01-11T05:09:17;-0.10;99.90
15386;DHT22;7791;47.246;9.648;2024-01-11T05:11:56;-0.20;99.90
15386;DHT22;7791;47.246;9.648;2024-01-11T05:14:33;-0.20;99.90
15386;DHT22;7791;47.246;9.648;2024-01-11T05:17:06;-0.40;99.90
15386;DHT22;7791;47.246;9.648;2024-01-11T05:22:33;-0.30;99.90
15386;DHT22;7791;47.246;9.648;2024-01-11T05:25:11;-0.30;99.90
15386;DHT22;7791;47.246;9.648;2024-01-11T05:28:03;-0.20;99.90
15386;DHT22;7791;47.246;9.648;2024-01-11T05:30:36;-0.40;99.90
15386;DHT22;7791;47.246;9.648;2024-01-11T05:33:15;-0.40;99.90
15386;DHT22;7791;47.246;9.648;2024-01-11T05:36:05;-0.40;99.90
15386;DHT22;7791;47.246;9.648;2024-01-11T05:39:03;-0.40;99.90
15386;DHT22;7791;47.246;9.648;2024-01-11T05:44:38;-0.60;99.90
15386;DHT22;7791;47.246;9.648;2024-01-11T05:47:17;-0.40;99.90
15386;DHT22;7791;47.246;9.648;2024-01-11T05:49:58;-0.50;99.90
15386;DHT22;7791;47.246;9.648;2024-01-11T05:52:36;-0.40;99.90
15386;DHT22;7791;47.246;9.648;2024-01-11T05:55:09;-0.50;99.90
15386;DHT22;7791;47.246;9.648;2024-01-11T05:57:47;-0.40;99.90
15386;DHT22;7791;47.246;9.648;2024-01-11T06:00:36;-0.50;99.90
15386;DHT22;7791;47.246;9.648;2024-01-11T06:03:12;-0.40;99.90
15386;DHT22;7791;47.246;9.648;2024-01-11T06:08:31;-0.10;99.90
15386;DHT22;7791;47.246;9.648;2024-01-11T06:11:18;0.00;99.90
15386;DHT22;7791;47.246;9.648;2024-01-11T06:13:58;0.00;99.90
15386;DHT22;7791;47.246;9.648;2024-01-11T06:19:25;0.00;99.90
15386;DHT22;7791;47.246;9.648;2024-01-11T06:22:06;0.10;99.90
15386;DHT22;7791;47.246;9.648;2024-01-11T06:27:33;0.10;99.90
15386;DHT22;7791;47.246;9.648;2024-01-11T06:30:09;0.00;99.90
15386;DHT22;7791;47.246;9.648;2024-01-11T06:32:48;0.00;99.90
15386;DHT22;7791;47.246;9.648;2024-01-11T06:35:24;0.10;99.90
15386;DHT22;7791;47.246;9.648;2024-01-11T06:38:12;0.20;99.90
15386;DHT22;7791;47.246;9.648;2024-01-11T06:43:44;0.20;99.90
15386;DHT22;7791;47.246;9.648;2024-01-11T06:46:24;0.10;99.90
15386;DHT22;7791;47.246;9.648;2024-01-11T06:49:18;0.10;99.90
15386;DHT22;7791;47.246;9.648;2024-01-11T06:51:58;0.10;99.90
15386;DHT22;7791;47.246;9.648;2024-01-11T06:56:10;0.00;99.90
15386;DHT22;7791;47.246;9.648;2024-01-11T07:00:29;0.20;99.90
15386;DHT22;7791;47.246;9.648;2024-01-11T07:06:09;0.40;99.90
15386;DHT22;7791;47.246;9.648;2024-01-11T07:08:53;0.50;99.90
15386;DHT22;7791;47.246;9.648;2024-01-11T07:11:37;0.50;99.90
15386;DHT22;7791;47.246;9.648;2024-01-11T07:14:31;0.50;99.90
15386;DHT22;7791;47.246;9.648;2024-01-11T07:17:09;0.60;99.90
15386;DHT22;7791;47.246;9.648;2024-01-11T07:19:57;0.50;99.90
15386;DHT22;7791;47.246;9.648;2024-01-11T07:22:45;0.40;99.90
15386;DHT22;7791;47.246;9.648;2024-01-11T07:25:20;0.40;99.90
15386;DHT22;7791;47.246;9.648;2024-01-11T07:27:52;0.50;99.90
15386;DHT22;7791;47.246;9.648;2024-01-11T07:30:25;0.50;99.90
15386;DHT22;7791;47.246;9.648;2024-01-11T07:33:06;0.60;99.90
15386;DHT22;7791;47.246;9.648;2024-01-11T07:35:50;0.60;99.90
15386;DHT22;7791;47.246;9.648;2024-01-11T07:38:26;0.70;99.90
15386;DHT22;7791;47.246;9.648;2024-01-11T07:41:04;0.70;99.90
15386;DHT22;7791;47.246;9.648;2024-01-11T07:43:50;0.70;99.90
15386;DHT22;7791;47.246;9.648;2024-01-11T07:46:35;0.80;99.90
15386;DHT22;7791;47.246;9.648;2024-01-11T07:49:06;0.90;99.90
15386;DHT22;7791;47.246;9.648;2024-01-11T07:51:43;0.90;99.90
15386;DHT22;7791;47.246;9.648;2024-01-11T07:54:32;1.00;99.90
15386;DHT22;7791;47.246;9.648;2024-01-11T07:57:10;1.00;99.90
15386;DHT22;7791;47.246;9.648;2024-01-11T07:59:57;0.80;99.90
15386;DHT22;7791;47.246;9.648;2024-01-11T08:05:24;0.70;99.90
15386;DHT22;7791;47.246;9.648;2024-01-11T08:08:07;0.80;99.90
15386;DHT22;7791;47.246;9.648;2024-01-11T08:10:58;0.90;99.90
15386;DHT22;7791;47.246;9.648;2024-01-11T08:13:37;0.90;99.90
15386;DHT22;7791;47.246;9.648;2024-01-11T08:22:29;0.80;99.90
15386;DHT22;7791;47.246;9.648;2024-01-11T08:25:03;0.90;99.90
15386;DHT22;7791;47.246;9.648;2024-01-11T08:27:44;0.80;99.90
15386;DHT22;7791;47.246;9.648;2024-01-11T08:30:20;0.90;99.90
15386;DHT22;7791;47.246;9.648;2024-01-11T08:32:56;0.90;99.90
15386;DHT22;7791;47.246;9.648;2024-01-11T08:35:32;1.00;99.90
15386;DHT22;7791;47.246;9.648;2024-01-11T08:38:05;1.10;99.90
15386;DHT22;7791;47.246;9.648;2024-01-11T08:40:47;1.10;99.90
15386;DHT22;7791;47.246;9.648;2024-01-11T08:43:27;1.00;99.90
15386;DHT22;7791;47.246;9.648;2024-01-11T08:46:02;0.90;99.90
15386;DHT22;7791;47.246;9.648;2024-01-11T08:48:53;1.00;99.90
15386;DHT22;7791;47.246;9.648;2024-01-11T08:51:24;1.10;99.90
15386;DHT22;7791;47.246;9.648;2024-01-11T08:54:01;1.00;99.90
15386;DHT22;7791;47.246;9.648;2024-01-11T08:56:30;1.00;99.90
15386;DHT22;7791;47.246;9.648;2024-01-11T09:02:14;1.10;99.90
15386;DHT22;7791;47.246;9.648;2024-01-11T09:04:53;1.10;99.90
15386;DHT22;7791;47.246;9.648;2024-01-11T09:07:53;1.10;99.90
15386;DHT22;7791;47.246;9.648;2024-01-11T09:10:31;1.10;99.90
15386;DHT22;7791;47.246;9.648;2024-01-11T09:16:07;1.20;99.90
15386;DHT22;7791;47.246;9.648;2024-01-11T09:18:42;1.10;99.90
15386;DHT22;7791;47.246;9.648;2024-01-11T09:21:24;1.20;99.90
15386;DHT22;7791;47.246;9.648;2024-01-11T09:23:57;1.20;99.90
15386;DHT22;7791;47.246;9.648;2024-01-11T09:26:33;1.10;99.90
15386;DHT22;7791;47.246;9.648;2024-01-11T09:29:05;1.00;99.90
15386;DHT22;7791;47.246;9.648;2024-01-11T09:31:38;0.90;99.90
15386;DHT22;7791;47.246;9.648;2024-01-11T09:34:22;0.80;99.90
15386;DHT22;7791;47.246;9.648;2024-01-11T09:36:59;0.70;99.90
15386;DHT22;7791;47.246;9.648;2024-01-11T09:39:38;0.70;99.90
15386;DHT22;7791;47.246;9.648;2024-01-11T09:42:25;0.90;99.90
15386;DHT22;7791;47.246;9.648;2024-01-11T09:45:08;0.70;99.90
15386;DHT22;7791;47.246;9.648;2024-01-11T09:47:44;0.80;99.90
15386;DHT22;7791;47.246;9.648;2024-01-11T09:50:27;0.90;99.90
15386;DHT22;7791;47.246;9.648;2024-01-11T09:53:12;1.10;99.90
15386;DHT22;7791;47.246;9.648;2024-01-11T09:55:57;1.30;99.90
15386;DHT22;7791;47.246;9.648;2024-01-11T09:58:39;1.20;99.90
15386;DHT22;7791;47.246;9.648;2024-01-11T10:01:16;1.30;99.90
15386;DHT22;7791;47.246;9.648;2024-01-11T10:04:00;1.50;99.90
15386;DHT22;7791;47.246;9.648;2024-01-11T10:09:22;1.30;99.90
15386;DHT22;7791;47.246;9.648;2024-01-11T10:11:57;1.20;99.90
15386;DHT22;7791;47.246;9.648;2024-01-11T10:14:41;1.40;99.90
15386;DHT22;7791;47.246;9.648;2024-01-11T10:17:15;1.50;99.90
15386;DHT22;7791;47.246;9.648;2024-01-11T10:28:31;1.60;99.90
15386;DHT22;7791;47.246;9.648;2024-01-11T10:31:14;1.30;99.90
15386;DHT22;7791;47.246;9.648;2024-01-11T10:33:49;1.30;99.90
15386;DHT22;7791;47.246;9.648;2024-01-11T10:36:17;1.40;99.90
15386;DHT22;7791;47.246;9.648;2024-01-11T10:38:49;1.60;99.90
15386;DHT22;7791;47.246;9.648;2024-01-11T10:41:39;1.70;99.90
15386;DHT22;7791;47.246;9.648;2024-01-11T10:44:30;1.70;99.90
15386;DHT22;7791;47.246;9.648;2024-01-11T10:47:16;1.80;99.90
15386;DHT22;7791;47.246;9.648;2024-01-11T10:50:07;1.80;99.90
15386;DHT22;7791;47.246;9.648;2024-01-11T10:52:56;1.80;99.90
15386;DHT22;7791;47.246;9.648;2024-01-11T10:55:43;1.80;99.90
15386;DHT22;7791;47.246;9.648;2024-01-11T10:58:22;1.70;99.90
15386;DHT22;7791;47.246;9.648;2024-01-11T11:01:02;1.20;99.90
15386;DHT22;7791;47.246;9.648;2024-01-11T11:03:44;1.00;99.90
15386;DHT22;7791;47.246;9.648;2024-01-11T11:09:23;0.80;99.90
15386;DHT22;7791;47.246;9.648;2024-01-11T11:12:01;0.80;99.90
15386;DHT22;7791;47.246;9.648;2024-01-11T11:14:42;0.50;99.90
15386;DHT22;7791;47.246;9.648;2024-01-11T11:17:12;0.20;99.90
15386;DHT22;7791;47.246;9.648;2024-01-11T11:22:41;0.10;99.90
15386;DHT22;7791;47.246;9.648;2024-01-11T11:25:28;-0.20;99.90
15386;DHT22;7791;47.246;9.648;2024-01-11T11:28:16;-0.20;99.90
15386;DHT22;7791;47.246;9.648;2024-01-11T11:31:07;-0.20;99.90
15386;DHT22;7791;47.246;9.648;2024-01-11T11:33:36;-0.20;99.90
15386;DHT22;7791;47.246;9.648;2024-01-11T11:36:16;-0.40;99.90
15386;DHT22;7791;47.246;9.648;2024-01-11T11:38:56;-0.40;99.90
15386;DHT22;7791;47.246;9.648;2024-01-11T11:41:43;-0.50;99.90
15386;DHT22;7791;47.246;9.648;2024-01-11T11:44:22;-0.50;99.90
15386;DHT22;7791;47.246;9.648;2024-01-11T11:47:21;-0.60;99.90
15386;DHT22;7791;47.246;9.648;2024-01-11T11:50:25;-0.40;99.90
15386;DHT22;7791;47.246;9.648;2024-01-11T11:53:22;-0.30;99.90
15386;DHT22;7791;47.246;9.648;2024-01-11T11:59:02;-0.10;99.90
15386;DHT22;7791;47.246;9.648;2024-01-11T12:04:34;0.50;99.90
15386;DHT22;7791;47.246;9.648;2024-01-11T12:10:19;0.80;99.90
15386;DHT22;7791;47.246;9.648;2024-01-11T12:13:09;0.80;99.90
15386;DHT22;7791;47.246;9.648;2024-01-11T12:15:59;0.70;99.90
15386;DHT22;7791;47.246;9.648;2024-01-11T12:18:45;0.60;99.90
15386;DHT22;7791;47.246;9.648;2024-01-11T12:24:08;1.10;99.90
15386;DHT22;7791;47.246;9.648;2024-01-11T12:26:48;1.30;99.90
15386;DHT22;7791;47.246;9.648;2024-01-11T12:29:21;1.40;99.90
15386;DHT22;7791;47.246;9.648;2024-01-11T12:32:00;1.50;99.90
15386;DHT22;7791;47.246;9.648;2024-01-11T12:34:46;1.60;99.90
15386;DHT22;7791;47.246;9.648;2024-01-11T12:37:37;1.20;99.90
15386;DHT22;7791;47.246;9.648;2024-01-11T12:40:18;1.00;99.90
15386;DHT22;7791;47.246;9.648;2024-01-11T12:43:00;0.70;99.90
15386;DHT22;7791;47.246;9.648;2024-01-11T12:45:51;0.50;99.90
15386;DHT22;7791;47.246;9.648;2024-01-11T12:51:27;0.40;99.90
15386;DHT22;7791;47.246;9.648;2024-01-11T12:54:10;0.40;99.90
15386;DHT22;7791;47.246;9.648;2024-01-11T12:56:56;0.30;99.90
15386;DHT22;7791;47.246;9.648;2024-01-11T12:59:49;0.20;99.90
15386;DHT22;7791;47.246;9.648;2024-01-11T13:02:24;0.20;99.90
15386;DHT22;7791;47.246;9.648;2024-01-11T13:05:08;0.10;99.90
15386;DHT22;7791;47.246;9.648;2024-01-11T13:07:41;0.10;99.90
15386;DHT22;7791;47.246;9.648;2024-01-11T13:10:15;-0.10;99.90
15386;DHT22;7791;47.246;9.648;2024-01-11T13:12:54;-0.30;99.90
15386;DHT22;7791;47.246;9.648;2024-01-11T13:15:39;-0.50;99.90
15386;DHT22;7791;47.246;9.648;2024-01-11T13:18:40;-0.60;99.90
15386;DHT22;7791;47.246;9.648;2024-01-11T13:21:26;-0.70;99.90
15386;DHT22;7791;47.246;9.648;2024-01-11T13:24:07;-0.70;99.90
15386;DHT22;7791;47.246;9.648;2024-01-11T13:26:47;-0.70;99.90
15386;DHT22;7791;47.246;9.648;2024-01-11T13:32:15;-0.70;99.90
15386;DHT22;7791;47.246;9.648;2024-01-11T13:40:23;-0.80;99.90
15386;DHT22;7791;47.246;9.648;2024-01-11T13:43:08;-0.90;99.90
15386;DHT22;7791;47.246;9.648;2024-01-11T13:46:00;-0.80;99.90
15386;DHT22;7791;47.246;9.648;2024-01-11T13:48:30;-0.80;99.90
15386;DHT22;7791;47.246;9.648;2024-01-11T13:54:04;-0.90;99.90
15386;DHT22;7791;47.246;9.648;2024-01-11T13:56:43;-0.90;99.90
15386;DHT22;7791;47.246;9.648;2024-01-11T13:59:35;-0.90;99.90
15386;DHT22;7791;47.246;9.648;2024-01-11T14:02:10;-1.10;99.90
15386;DHT22;7791;47.246;9.648;2024-01-11T14:07:47;-1.20;99.90
15386;DHT22;7791;47.246;9.648;2024-01-11T14:13:24;-1.20;99.90
15386;DHT22;7791;47.246;9.648;2024-01-11T14:16:10;-1.10;99.90
15386;DHT22;7791;47.246;9.648;2024-01-11T14:18:58;-1.00;99.90
15386;DHT22;7791;47.246;9.648;2024-01-11T14:21:36;-1.10;99.90
15386;DHT22;7791;47.246;9.648;2024-01-11T14:24:14;-1.10;99.90
15386;DHT22;7791;47.246;9.648;2024-01-11T14:26:52;-1.00;99.90
15386;DHT22;7791;47.246;9.648;2024-01-11T14:29:37;-0.80;99.90
15386;DHT22;7791;47.246;9.648;2024-01-11T14:32:25;-0.60;99.90
15386;DHT22;7791;47.246;9.648;2024-01-11T14:35:07;-0.60;99.90
15386;DHT22;7791;47.246;9.648;2024-01-11T14:38:05;-0.60;99.90
15386;DHT22;7791;47.246;9.648;2024-01-11T14:40:54;-0.30;99.90
15386;DHT22;7791;47.246;9.648;2024-01-11T14:46:25;-0.20;99.90
15386;DHT22;7791;47.246;9.648;2024-01-11T14:49:16;-0.20;99.90
15386;DHT22;7791;47.246;9.648;2024-01-11T14:52:03;-0.10;99.90
15386;DHT22;7791;47.246;9.648;2024-01-11T14:54:39;0.00;99.90
15386;DHT22;7791;47.246;9.648;2024-01-11T14:57:11;0.10;99.90
15386;DHT22;7791;47.246;9.648;2024-01-11T15:02:53;-0.20;99.90
15386;DHT22;7791;47.246;9.648;2024-01-11T15:08:46;-0.40;99.90
15386;DHT22;7791;47.246;9.648;2024-01-11T15:11:35;-0.30;99.90
15386;DHT22;7791;47.246;9.648;2024-01-11T15:14:19;-0.50;99.90
15386;DHT22;7791;47.246;9.648;2024-01-11T15:16:56;-0.50;99.90
15386;DHT22;7791;47.246;9.648;2024-01-11T15:19:48;-0.60;99.90
15386;DHT22;7791;47.246;9.648;2024-01-11T15:22:24;-0.70;99.90
15386;DHT22;7791;47.246;9.648;2024-01-11T15:25:11;-0.60;99.90
15386;DHT22;7791;47.246;9.648;2024-01-11T15:27:43;-0.40;99.90
15386;DHT22;7791;47.246;9.648;2024-01-11T15:30:24;-0.30;99.90
15386;DHT22;7791;47.246;9.648;2024-01-11T15:32:58;-0.10;99.90
15386;DHT22;7791;47.246;9.648;2024-01-11T15:35:35;-0.30;99.90
15386;DHT22;7791;47.246;9.648;2024-01-11T15:38:19;-0.30;99.90
15386;DHT22;7791;47.246;9.648;2024-01-11T15:41:00;-0.30;99.90
15386;DHT22;7791;47.246;9.648;2024-01-11T15:43:43;-0.50;99.90
15386;DHT22;7791;47.246;9.648;2024-01-11T15:46:17;-0.60;99.90
15386;DHT22;7791;47.246;9.648;2024-01-11T15:48:56;-0.60;99.90
15386;DHT22;7791;47.246;9.648;2024-01-11T15:51:32;-0.60;99.90
15386;DHT22;7791;47.246;9.648;2024-01-11T15:54:18;-0.70;99.90
15386;DHT22;7791;47.246;9.648;2024-01-11T16:00:26;-0.90;99.90
15386;DHT22;7791;47.246;9.648;2024-01-11T16:03:11;-1.00;99.90
15386;DHT22;7791;47.246;9.648;2024-01-11T16:05:52;-1.00;99.90
15386;DHT22;7791;47.246;9.648;2024-01-11T16:08:28;-1.00;99.90
15386;DHT22;7791;47.246;9.648;2024-01-11T16:11:23;-1.10;99.90
15386;DHT22;7791;47.246;9.648;2024-01-11T16:14:05;-1.20;99.90
15386;DHT22;7791;47.246;9.648;2024-01-11T16:16:42;-1.10;99.90
15386;DHT22;7791;47.246;9.648;2024-01-11T16:19:42;-1.10;99.90
15386;DHT22;7791;47.246;9.648;2024-01-11T16:22:20;-1.10;99.90
15386;DHT22;7791;47.246;9.648;2024-01-11T16:25:11;-1.20;99.90
15386;DHT22;7791;47.246;9.648;2024-01-11T16:28:05;-1.10;99.90
15386;DHT22;7791;47.246;9.648;2024-01-11T16:30:50;-1.10;99.90
15386;DHT22;7791;47.246;9.648;2024-01-11T16:33:22;-1.00;99.90
15386;DHT22;7791;47.246;9.648;2024-01-11T16:35:59;-1.10;99.90
15386;DHT22;7791;47.246;9.648;2024-01-11T16:38:38;-1.10;99.90
15386;DHT22;7791;47.246;9.648;2024-01-11T16:41:13;-1.10;99.90
15386;DHT22;7791;47.246;9.648;2024-01-11T16:43:51;-1.10;99.90
15386;DHT22;7791;47.246;9.648;2024-01-11T16:46:30;-1.20;99.90
15386;DHT22;7791;47.246;9.648;2024-01-11T16:51:54;-1.30;99.90
15386;DHT22;7791;47.246;9.648;2024-01-11T16:54:34;-1.20;99.90
15386;DHT22;7791;47.246;9.648;2024-01-11T17:00:05;-1.30;99.90
15386;DHT22;7791;47.246;9.648;2024-01-11T17:02:57;-1.30;99.90
15386;DHT22;7791;47.246;9.648;2024-01-11T17:05:44;-1.40;99.90
15386;DHT22;7791;47.246;9.648;2024-01-11T17:08:19;-1.40;99.90
15386;DHT22;7791;47.246;9.648;2024-01-11T17:10:55;-1.40;99.90
15386;DHT22;7791;47.246;9.648;2024-01-11T17:13:35;-1.40;99.90
15386;DHT22;7791;47.246;9.648;2024-01-11T17:16:08;-1.50;99.90
15386;DHT22;7791;47.246;9.648;2024-01-11T17:18:44;-1.50;99.90
15386;DHT22;7791;47.246;9.648;2024-01-11T17:21:21;-1.50;99.90
15386;DHT22;7791;47.246;9.648;2024-01-11T17:23:57;-1.60;99.90
15386;DHT22;7791;47.246;9.648;2024-01-11T17:26:41;-1.60;99.90
15386;DHT22;7791;47.246;9.648;2024-01-11T17:29:36;-1.50;99.90
15386;DHT22;7791;47.246;9.648;2024-01-11T17:32:24;-1.50;99.90
15386;DHT22;7791;47.246;9.648;2024-01-11T17:38:01;-1.60;99.90
15386;DHT22;7791;47.246;9.648;2024-01-11T17:43:38;-1.40;99.90
15386;DHT22;7791;47.246;9.648;2024-01-11T17:46:14;-1.30;99.90
15386;DHT22;7791;47.246;9.648;2024-01-11T17:49:01;-1.30;99.90
15386;DHT22;7791;47.246;9.648;2024-01-11T17:51:42;-1.30;99.90
15386;DHT22;7791;47.246;9.648;2024-01-11T17:54:33;-1.30;99.90
15386;DHT22;7791;47.246;9.648;2024-01-11T18:00:19;-0.90;99.90
15386;DHT22;7791;47.246;9.648;2024-01-11T18:02:49;-0.80;99.90
15386;DHT22;7791;47.246;9.648;2024-01-11T18:06:01;-0.70;99.90
15386;DHT22;7791;47.246;9.648;2024-01-11T18:08:15;-0.80;99.90
15386;DHT22;7791;47.246;9.648;2024-01-11T18:11:16;-0.80;99.90
15386;DHT22;7791;47.246;9.648;2024-01-11T18:14:00;-0.80;99.90
15386;DHT22;7791;47.246;9.648;2024-01-11T18:16:40;-0.90;99.90
15386;DHT22;7791;47.246;9.648;2024-01-11T18:23:43;-0.80;99.90
15386;DHT22;7791;47.246;9.648;2024-01-11T18:24:59;-0.70;99.90
15386;DHT22;7791;47.246;9.648;2024-01-11T18:27:38;-0.70;99.90
15386;DHT22;7791;47.246;9.648;2024-01-11T18:30:23;-0.70;99.90
15386;DHT22;7791;47.246;9.648;2024-01-11T18:33:11;-0.70;99.90
15386;DHT22;7791;47.246;9.648;2024-01-11T18:38:51;-0.70;99.90
15386;DHT22;7791;47.246;9.648;2024-01-11T18:41:27;-0.50;99.90
15386;DHT22;7791;47.246;9.648;2024-01-11T18:44:06;-0.40;99.90
15386;DHT22;7791;47.246;9.648;2024-01-11T18:46:39;-0.60;99.90
15386;DHT22;7791;47.246;9.648;2024-01-11T18:49:10;-0.60;99.90
15386;DHT22;7791;47.246;9.648;2024-01-11T18:52:05;-0.60;99.90
15386;DHT22;7791;47.246;9.648;2024-01-11T18:54:44;-0.70;99.90
15386;DHT22;7791;47.246;9.648;2024-01-11T18:57:29;-0.80;99.90
15386;DHT22;7791;47.246;9.648;2024-01-11T19:00:04;-0.80;99.90
15386;DHT22;7791;47.246;9.648;2024-01-11T19:02:39;-0.90;99.90
15386;DHT22;7791;47.246;9.648;2024-01-11T19:05:34;-0.90;99.90
15386;DHT22;7791;47.246;9.648;2024-01-11T19:08:04;-1.00;99.90
15386;DHT22;7791;47.246;9.648;2024-01-11T19:10:44;-1.00;99.90
15386;DHT22;7791;47.246;9.648;2024-01-11T19:13:30;-1.00;99.90
15386;DHT22;7791;47.246;9.648;2024-01-11T19:16:22;-1.00;99.90
15386;DHT22;7791;47.246;9.648;2024-01-11T19:18:56;-1.00;99.90
15386;DHT22;7791;47.246;9.648;2024-01-11T19:21:43;-1.10;99.90
15386;DHT22;7791;47.246;9.648;2024-01-11T19:24:30;-1.20;99.90
15386;DHT22;7791;47.246;9.648;2024-01-11T19:27:10;-1.10;99.90
15386;DHT22;7791;47.246;9.648;2024-01-11T19:33:00;-1.10;99.90
15386;DHT22;7791;47.246;9.648;2024-01-11T19:35:38;-1.10;99.90
15386;DHT22;7791;47.246;9.648;2024-01-11T19:38:11;-1.00;99.90
15386;DHT22;7791;47.246;9.648;2024-01-11T19:40:48;-0.90;99.90
15386;DHT22;7791;47.246;9.648;2024-01-11T19:43:24;-0.90;99.90
15386;DHT22;7791;47.246;9.648;2024-01-11T19:46:07;-0.80;99.90
15386;DHT22;7791;47.246;9.648;2024-01-11T19:48:39;-0.60;99.90
15386;DHT22;7791;47.246;9.648;2024-01-11T19:51:33;-0.80;99.90
15386;DHT22;7791;47.246;9.648;2024-01-11T19:54:09;-0.70;99.90
15386;DHT22;7791;47.246;9.648;2024-01-11T19:56:44;-0.60;99.90
15386;DHT22;7791;47.246;9.648;2024-01-11T19:59:20;-0.50;99.90
15386;DHT22;7791;47.246;9.648;2024-01-11T20:02:03;-0.50;99.90
15386;DHT22;7791;47.246;9.648;2024-01-11T20:04:39;-0.60;99.90
15386;DHT22;7791;47.246;9.648;2024-01-11T20:07:15;-0.50;99.90
15386;DHT22;7791;47.246;9.648;2024-01-11T20:12:48;-0.30;99.90
15386;DHT22;7791;47.246;9.648;2024-01-11T20:15:23;-0.30;99.90
15386;DHT22;7791;47.246;9.648;2024-01-11T20:20:50;-0.30;99.90